Time;durP1;ratioP1;P1;durP2;ratioP2;P2;SDS_P1;SDS_P2;PMS_P1;PMS_P2;Temp;Humidity;BMP_temperature;BMP_pressure;BME280_temperature;BME280_humidity;BME280_pressure;Samples;Min_cycle;Max_cycle;Signal;HPM_P1;HPM_P2
2022/10/13 00:00:44;;;;;;;26.70;15.37;;;8.30;99.90;;;;;;5100806;28;20567;-67
2022/10/13 00:03:11;;;;;;;19.23;13.50;;;8.20;99.90;;;;;;5101763;28;20477;-67
2022/10/13 00:05:40;;;;;;;25.43;15.20;;;8.20;99.90;;;;;;5096614;28;20457;-67
2022/10/13 00:08:07;;;;;;;21.80;14.10;;;8.20;99.90;;;;;;5095377;28;20486;-67
2022/10/13 00:10:38;;;;;;;27.53;15.27;;;8.10;99.90;;;;;;5091235;28;20460;-67
2022/10/13 00:13:06;;;;;;;22.53;14.17;;;8.10;99.90;;;;;;5092559;28;20910;-68
2022/10/13 00:15:33;;;;;;;19.33;12.97;;;8.00;99.90;;;;;;5092299;28;20455;-68
2022/10/13 00:17:59;;;;;;;32.53;14.50;;;8.00;99.90;;;;;;5091990;28;21004;-68
2022/10/13 00:20:26;;;;;;;30.07;16.13;;;8.00;99.90;;;;;;5090893;28;20868;-68
2022/10/13 00:22:53;;;;;;;25.80;15.07;;;7.90;99.90;;;;;;5092088;28;20459;-68
2022/10/13 00:25:19;;;;;;;24.17;15.83;;;7.80;99.90;;;;;;5096087;28;20463;-68
2022/10/13 00:27:47;;;;;;;24.30;14.20;;;7.80;99.90;;;;;;5091580;28;20455;-67
2022/10/13 00:30:14;;;;;;;25.87;15.20;;;7.80;99.90;;;;;;5091587;28;20459;-68
2022/10/13 00:32:41;;;;;;;24.67;15.70;;;7.70;99.90;;;;;;5091657;28;20473;-68
2022/10/13 00:35:09;;;;;;;27.03;14.03;;;7.70;99.90;;;;;;5090687;28;20454;-68
2022/10/13 00:37:35;;;;;;;31.30;14.20;;;7.70;99.90;;;;;;5091812;28;20461;-67
2022/10/13 00:40:03;;;;;;;23.07;13.97;;;7.70;99.90;;;;;;5098621;28;20443;-68
2022/10/13 00:42:29;;;;;;;27.97;15.20;;;7.60;99.90;;;;;;5102162;28;20498;-67
2022/10/13 00:45:06;;;;;;;29.30;16.10;;;7.60;99.90;;;;;;5097750;28;20528;-66
2022/10/13 00:47:36;;;;;;;30.00;16.40;;;7.60;99.90;;;;;;5103073;28;20533;-66
2022/10/13 00:50:05;;;;;;;23.97;15.43;;;7.60;99.90;;;;;;5103210;28;20453;-66
2022/10/13 00:52:33;;;;;;;26.43;16.10;;;7.60;99.90;;;;;;5100456;28;20466;-66
2022/10/13 00:55:02;;;;;;;26.00;14.27;;;7.60;99.90;;;;;;5099871;28;20864;-67
2022/10/13 00:57:29;;;;;;;23.83;15.40;;;7.60;99.90;;;;;;5094956;28;20489;-66
2022/10/13 00:59:56;;;;;;;30.67;15.60;;;7.60;99.90;;;;;;5094949;28;20796;-66
2022/10/13 01:02:31;;;;;;;27.63;16.97;;;7.60;99.90;;;;;;5101043;28;20481;-66
2022/10/13 01:04:59;;;;;;;28.23;15.37;;;7.60;99.90;;;;;;5099343;28;20485;-66
2022/10/13 01:07:26;;;;;;;24.60;14.90;;;7.60;99.90;;;;;;5101755;28;20507;-66
2022/10/13 01:09:53;;;;;;;26.07;15.97;;;7.60;99.90;;;;;;5094496;28;20452;-66
2022/10/13 01:12:30;;;;;;;31.17;16.80;;;7.60;99.90;;;;;;5104317;28;20477;-66
2022/10/13 01:15:05;;;;;;;28.97;14.77;;;7.50;99.90;;;;;;5100570;28;20452;-66
2022/10/13 01:17:38;;;;;;;28.57;15.60;;;7.50;99.90;;;;;;5100242;28;20454;-66
2022/10/13 01:20:25;;;;;;;32.40;17.00;;;7.50;99.90;;;;;;5098016;28;20570;-66
2022/10/13 01:23:07;;;;;;;43.13;16.47;;;7.60;99.90;;;;;;5102645;28;20458;-67
2022/10/13 01:25:52;;;;;;;71.00;18.50;;;7.60;99.90;;;;;;5102134;28;20569;-66
2022/10/13 01:28:33;;;;;;;59.17;17.13;;;7.60;99.90;;;;;;5094219;28;20525;-66
2022/10/13 01:31:08;;;;;;;71.63;18.47;;;7.60;99.90;;;;;;5093656;28;21155;-66
2022/10/13 01:33:42;;;;;;;68.67;17.80;;;7.60;99.90;;;;;;5097974;28;20442;-66
2022/10/13 01:36:18;;;;;;;65.03;18.90;;;7.50;99.90;;;;;;5101385;28;20477;-66
2022/10/13 01:38:53;;;;;;;53.47;17.70;;;7.40;99.90;;;;;;5100411;28;20964;-68
2022/10/13 01:41:25;;;;;;;44.43;17.87;;;7.40;99.90;;;;;;5093688;28;20464;-67
2022/10/13 01:43:57;;;;;;;79.63;18.47;;;7.40;99.90;;;;;;5106680;28;20535;-67
2022/10/13 01:46:29;;;;;;;68.10;18.57;;;7.50;99.90;;;;;;5093827;28;20545;-68
2022/10/13 01:48:58;;;;;;;65.00;18.33;;;7.40;99.90;;;;;;5090401;28;20467;-68
2022/10/13 01:51:27;;;;;;;63.97;18.90;;;7.50;99.90;;;;;;5089942;28;20475;-68
2022/10/13 01:53:53;;;;;;;49.00;17.97;;;7.50;99.90;;;;;;5090965;28;20455;-68
2022/10/13 01:56:20;;;;;;;43.03;15.97;;;7.50;99.90;;;;;;5090525;28;20491;-68
2022/10/13 01:58:49;;;;;;;57.50;16.77;;;7.50;99.90;;;;;;5090408;28;20454;-67
2022/10/13 02:01:41;;;;;;;83.90;18.13;;;7.50;99.90;;;;;;5100437;28;20529;-68
2022/10/13 02:04:21;;;;;;;104.97;18.17;;;7.50;99.90;;;;;;5098254;28;20474;-68
2022/10/13 02:06:53;;;;;;;61.63;17.40;;;7.40;99.90;;;;;;5090952;28;20446;-68
2022/10/13 02:09:25;;;;;;;81.00;16.87;;;7.30;99.90;;;;;;5090410;28;20518;-68
2022/10/13 02:11:59;;;;;;;68.87;16.50;;;7.20;99.90;;;;;;5102639;28;20484;-68
2022/10/13 02:14:29;;;;;;;40.00;17.50;;;7.10;99.90;;;;;;5094104;28;20493;-66
2022/10/13 02:17:02;;;;;;;49.30;15.70;;;7.10;99.90;;;;;;5105712;28;20454;-66
2022/10/13 02:19:29;;;;;;;34.93;16.77;;;7.10;99.90;;;;;;5093538;28;20453;-66
2022/10/13 02:21:57;;;;;;;43.97;16.90;;;7.10;99.90;;;;;;5093535;28;20546;-66
2022/10/13 02:24:24;;;;;;;60.00;17.27;;;7.00;99.90;;;;;;5099348;28;20480;-67
2022/10/13 02:26:51;;;;;;;71.77;17.43;;;7.00;99.90;;;;;;5107043;28;20528;-66
2022/10/13 02:29:18;;;;;;;48.70;17.70;;;7.00;99.90;;;;;;5107695;28;20443;-66
2022/10/13 02:31:46;;;;;;;44.10;17.87;;;7.00;99.90;;;;;;5104656;28;21018;-66
2022/10/13 02:34:15;;;;;;;33.73;16.80;;;7.00;99.90;;;;;;5094724;28;20446;-66
2022/10/13 02:36:42;;;;;;;25.10;16.70;;;7.00;99.90;;;;;;5094348;28;20458;-66
2022/10/13 02:39:10;;;;;;;28.73;15.97;;;7.10;99.90;;;;;;5108039;28;20451;-66
2022/10/13 02:41:37;;;;;;;36.50;15.70;;;7.10;99.90;;;;;;5095525;28;20536;-66
2022/10/13 02:44:04;;;;;;;24.90;15.90;;;7.20;99.90;;;;;;5096101;28;20489;-66
2022/10/13 02:46:31;;;;;;;23.70;15.03;;;7.20;99.90;;;;;;5097321;28;20473;-66
2022/10/13 02:48:58;;;;;;;29.47;16.57;;;7.20;99.90;;;;;;5108932;28;20447;-67
2022/10/13 02:51:26;;;;;;;25.33;15.20;;;7.20;99.90;;;;;;5105372;28;20497;-67
2022/10/13 02:53:53;;;;;;;27.30;16.20;;;7.30;99.90;;;;;;5093289;28;20951;-67
2022/10/13 02:56:19;;;;;;;25.57;15.73;;;7.30;99.90;;;;;;5093554;28;20475;-67
2022/10/13 02:58:46;;;;;;;28.60;15.60;;;7.30;99.90;;;;;;5093347;28;20827;-66
2022/10/13 03:01:14;;;;;;;26.60;16.90;;;7.30;99.90;;;;;;5093572;28;20865;-66
2022/10/13 03:03:41;;;;;;;45.10;16.77;;;7.30;99.90;;;;;;5093043;28;20454;-66
2022/10/13 03:06:08;;;;;;;53.60;16.20;;;7.30;99.90;;;;;;5096255;28;20455;-66
2022/10/13 03:08:37;;;;;;;29.83;17.50;;;7.20;99.90;;;;;;5102323;28;20449;-66
2022/10/13 03:11:04;;;;;;;31.73;17.77;;;7.20;99.90;;;;;;5108390;28;20467;-67
2022/10/13 03:13:31;;;;;;;31.43;16.70;;;7.20;99.90;;;;;;5107817;28;20444;-67
2022/10/13 03:15:58;;;;;;;26.27;17.00;;;7.20;99.90;;;;;;5105066;28;20457;-67
2022/10/13 03:18:24;;;;;;;34.83;17.10;;;7.30;99.90;;;;;;5104596;28;20451;-67
2022/10/13 03:20:59;;;;;;;28.20;17.47;;;7.20;99.90;;;;;;5107306;28;20482;-67
2022/10/13 03:23:26;;;;;;;29.17;17.77;;;7.20;99.90;;;;;;5097467;28;20501;-67
2022/10/13 03:25:56;;;;;;;26.60;16.77;;;7.20;99.90;;;;;;5097061;27;20479;-66
2022/10/13 03:28:23;;;;;;;31.43;17.37;;;7.30;99.90;;;;;;5096063;28;20487;-66
2022/10/13 03:30:49;;;;;;;28.27;16.67;;;7.30;99.90;;;;;;5105946;28;20481;-67
2022/10/13 03:33:16;;;;;;;29.67;18.03;;;7.30;99.90;;;;;;5109925;28;20508;-66
2022/10/13 03:35:43;;;;;;;37.87;18.00;;;7.30;99.90;;;;;;5103436;28;20460;-67
2022/10/13 03:38:09;;;;;;;32.00;17.23;;;7.30;99.90;;;;;;5109883;28;20805;-67
2022/10/13 03:40:36;;;;;;;28.90;15.80;;;7.30;99.90;;;;;;5106677;28;20454;-67
2022/10/13 03:43:04;;;;;;;28.07;15.33;;;7.30;99.90;;;;;;5110772;28;20464;-67
2022/10/13 03:45:31;;;;;;;27.13;16.37;;;7.40;99.90;;;;;;5096952;27;20478;-67
2022/10/13 03:47:58;;;;;;;29.40;16.60;;;7.40;99.90;;;;;;5095917;28;20449;-67
2022/10/13 03:50:25;;;;;;;30.80;15.87;;;7.30;99.90;;;;;;5095604;28;20816;-67
2022/10/13 03:52:51;;;;;;;30.47;15.10;;;7.40;99.90;;;;;;5102203;28;20954;-68
2022/10/13 03:55:18;;;;;;;28.37;14.97;;;7.40;99.90;;;;;;5098876;28;20943;-67
2022/10/13 03:57:45;;;;;;;28.50;15.83;;;7.40;99.90;;;;;;5109400;28;20477;-67
2022/10/13 04:00:15;;;;;;;31.33;15.83;;;7.40;99.90;;;;;;5109038;28;20465;-66
2022/10/13 04:02:41;;;;;;;28.37;15.60;;;7.40;99.90;;;;;;5109387;28;20473;-66
2022/10/13 04:05:09;;;;;;;28.93;16.60;;;7.40;99.90;;;;;;5099398;27;20476;-66
2022/10/13 04:07:36;;;;;;;30.77;15.80;;;7.50;99.90;;;;;;5096662;28;20458;-68
2022/10/13 04:10:03;;;;;;;35.87;17.43;;;7.50;99.90;;;;;;5097704;28;20450;-68
2022/10/13 04:12:29;;;;;;;33.30;16.70;;;7.50;99.90;;;;;;5109402;28;20473;-68
2022/10/13 04:14:56;;;;;;;35.37;18.10;;;7.60;99.90;;;;;;5096446;28;20461;-68
2022/10/13 04:17:24;;;;;;;34.17;18.93;;;7.60;99.90;;;;;;5101865;28;21004;-68
2022/10/13 04:19:51;;;;;;;46.63;18.20;;;7.50;99.90;;;;;;5091988;28;20452;-68
2022/10/13 04:22:17;;;;;;;90.83;18.53;;;7.60;99.90;;;;;;5092076;28;20478;-68
2022/10/13 04:24:44;;;;;;;51.90;19.00;;;7.50;99.90;;;;;;5091544;28;20544;-67
2022/10/13 04:27:11;;;;;;;48.90;19.90;;;7.50;99.90;;;;;;5091748;28;20504;-68
2022/10/13 04:29:37;;;;;;;48.30;19.63;;;7.60;99.90;;;;;;5091456;28;20459;-68
2022/10/13 04:32:04;;;;;;;63.60;18.40;;;7.60;99.90;;;;;;5091581;28;20482;-68
2022/10/13 04:34:32;;;;;;;39.53;17.60;;;7.60;99.90;;;;;;5093628;28;20857;-67
2022/10/13 04:36:59;;;;;;;59.83;20.17;;;7.60;99.90;;;;;;5106816;28;20458;-68
2022/10/13 04:39:26;;;;;;;36.40;17.97;;;7.70;99.90;;;;;;5103594;28;20456;-67
2022/10/13 04:41:52;;;;;;;30.20;17.53;;;7.70;99.90;;;;;;5100158;28;20476;-67
2022/10/13 04:44:19;;;;;;;56.97;18.87;;;7.70;99.90;;;;;;5102716;28;20460;-67
2022/10/13 04:46:46;;;;;;;38.17;17.20;;;7.70;99.90;;;;;;5102828;28;20446;-67
2022/10/13 04:49:14;;;;;;;31.73;16.20;;;7.70;99.90;;;;;;5100269;28;20474;-67
2022/10/13 04:51:42;;;;;;;32.43;17.33;;;7.70;99.90;;;;;;5105396;28;20467;-67
2022/10/13 04:54:09;;;;;;;31.20;16.43;;;7.70;99.90;;;;;;5109025;28;20450;-68
2022/10/13 04:56:36;;;;;;;29.63;16.50;;;7.70;99.90;;;;;;5107671;28;20450;-68
2022/10/13 04:59:04;;;;;;;35.43;17.27;;;7.70;99.90;;;;;;5107152;28;20551;-68
2022/10/13 05:01:32;;;;;;;45.13;18.27;;;7.70;99.90;;;;;;5102102;28;20575;-67
2022/10/13 05:04:01;;;;;;;36.40;18.27;;;7.80;99.90;;;;;;5100421;28;20454;-67
2022/10/13 05:06:30;;;;;;;50.23;17.90;;;7.70;99.90;;;;;;5094195;28;20486;-67
2022/10/13 05:08:58;;;;;;;72.50;19.83;;;7.80;99.90;;;;;;5095763;28;20520;-68
2022/10/13 05:11:26;;;;;;;40.37;19.17;;;7.70;99.90;;;;;;5099304;28;20470;-68
2022/10/13 05:13:53;;;;;;;41.57;18.37;;;7.70;99.90;;;;;;5091484;28;20451;-67
2022/10/13 05:16:21;;;;;;;43.47;19.10;;;7.70;99.90;;;;;;5090923;28;20450;-67
2022/10/13 05:18:48;;;;;;;55.63;17.77;;;7.70;99.90;;;;;;5090942;28;20868;-67
2022/10/13 05:21:17;;;;;;;61.07;18.07;;;7.70;99.90;;;;;;5089840;28;20477;-67
2022/10/13 05:23:44;;;;;;;52.73;18.87;;;7.60;99.90;;;;;;5090738;28;21278;-67
2022/10/13 05:26:13;;;;;;;68.63;18.93;;;7.60;99.90;;;;;;5092413;28;20539;-68
2022/10/13 05:28:40;;;;;;;32.40;17.87;;;7.60;99.90;;;;;;5103588;28;20979;-68
2022/10/13 05:31:11;;;;;;;70.10;19.23;;;7.60;99.90;;;;;;5103409;28;20504;-68
2022/10/13 05:33:38;;;;;;;80.10;18.87;;;7.60;99.90;;;;;;5106534;28;20469;-70
2022/10/13 05:36:07;;;;;;;75.10;19.37;;;7.60;99.90;;;;;;5105563;28;20939;-70
2022/10/13 05:38:34;;;;;;;47.23;19.57;;;7.60;99.90;;;;;;5095158;28;20927;-71
2022/10/13 05:41:04;;;;;;;62.13;19.50;;;7.60;99.90;;;;;;5097509;28;20473;-70
2022/10/13 05:43:33;;;;;;;51.37;18.87;;;7.60;99.90;;;;;;5093142;28;20488;-70
2022/10/13 05:46:00;;;;;;;98.77;19.70;;;7.70;99.90;;;;;;5095212;28;20633;-70
2022/10/13 05:48:28;;;;;;;104.03;19.97;;;7.70;99.90;;;;;;5101484;28;20457;-70
2022/10/13 05:50:57;;;;;;;67.37;19.10;;;7.60;99.90;;;;;;5105977;28;20465;-70
2022/10/13 05:53:26;;;;;;;102.33;19.10;;;7.60;99.90;;;;;;5101588;28;20473;-70
2022/10/13 05:55:56;;;;;;;66.33;19.63;;;7.60;99.90;;;;;;5105639;28;20882;-70
2022/10/13 05:58:23;;;;;;;70.33;19.37;;;7.60;99.90;;;;;;5096842;28;20505;-70
2022/10/13 06:00:53;;;;;;;156.63;20.37;;;7.60;99.90;;;;;;5104209;28;20469;-69
2022/10/13 06:03:23;;;;;;;172.40;20.10;;;7.60;99.90;;;;;;5094840;28;20458;-69
2022/10/13 06:05:49;;;;;;;220.77;20.60;;;7.70;99.90;;;;;;5089896;28;20492;-69
2022/10/13 06:08:17;;;;;;;159.03;19.20;;;7.70;99.90;;;;;;5090503;28;20450;-69
2022/10/13 06:10:45;;;;;;;149.63;22.00;;;7.70;99.90;;;;;;5089685;28;20454;-69
2022/10/13 06:13:11;;;;;;;156.50;20.00;;;7.70;99.90;;;;;;5097496;28;21196;-68
2022/10/13 06:15:38;;;;;;;223.87;20.77;;;7.70;99.90;;;;;;5092635;28;20470;-69
2022/10/13 06:18:09;;;;;;;262.63;21.80;;;7.70;99.90;;;;;;5093891;28;20580;-69
2022/10/13 06:20:36;;;;;;;69.97;17.60;;;7.70;99.90;;;;;;5092541;28;20454;-69
2022/10/13 06:23:03;;;;;;;200.57;21.20;;;7.70;99.90;;;;;;5092953;28;20454;-69
2022/10/13 06:25:30;;;;;;;151.60;19.83;;;7.70;99.90;;;;;;5096094;28;20485;-69
2022/10/13 06:27:57;;;;;;;188.80;21.37;;;7.70;99.90;;;;;;5102089;28;20453;-69
2022/10/13 06:30:23;;;;;;;117.70;18.47;;;7.70;99.90;;;;;;5111922;28;21050;-69
2022/10/13 06:32:50;;;;;;;156.83;19.93;;;7.70;99.90;;;;;;5112225;28;20527;-69
2022/10/13 06:35:18;;;;;;;87.50;18.83;;;7.70;99.90;;;;;;5113092;28;20449;-69
2022/10/13 06:37:47;;;;;;;128.30;18.93;;;7.80;99.90;;;;;;5113460;28;20445;-69
2022/10/13 06:40:14;;;;;;;109.90;19.43;;;7.80;99.90;;;;;;5113615;28;20452;-69
2022/10/13 06:42:40;;;;;;;137.17;18.80;;;7.90;99.90;;;;;;5113748;28;20469;-69
2022/10/13 06:45:08;;;;;;;154.13;19.53;;;7.90;99.90;;;;;;5114739;28;20816;-69
2022/10/13 06:47:35;;;;;;;39.00;17.30;;;8.00;99.90;;;;;;5115093;28;20499;-69
2022/10/13 06:50:01;;;;;;;135.00;19.17;;;8.00;99.90;;;;;;5115205;28;20470;-69
2022/10/13 06:52:29;;;;;;;130.10;19.67;;;8.00;99.90;;;;;;5115032;28;20496;-69
2022/10/13 06:54:56;;;;;;;167.27;19.67;;;8.00;99.90;;;;;;5115244;28;20453;-69
2022/10/13 06:57:23;;;;;;;100.63;18.53;;;8.10;99.90;;;;;;5102920;28;20526;-69
2022/10/13 06:59:51;;;;;;;60.63;19.83;;;8.10;99.90;;;;;;5095062;28;20531;-69
2022/10/13 07:02:18;;;;;;;84.90;18.90;;;8.10;99.90;;;;;;5094599;28;20904;-69
2022/10/13 07:04:46;;;;;;;161.73;19.70;;;8.20;99.90;;;;;;5094719;28;20503;-69
2022/10/13 07:07:13;;;;;;;132.23;20.73;;;8.20;99.90;;;;;;5100312;28;21010;-69
2022/10/13 07:09:41;;;;;;;83.17;18.90;;;8.30;99.90;;;;;;5114813;28;20495;-69
2022/10/13 07:12:08;;;;;;;77.63;20.00;;;8.30;99.90;;;;;;5114663;28;20542;-69
2022/10/13 07:14:35;;;;;;;121.23;19.17;;;8.30;99.90;;;;;;5114955;28;20458;-69
2022/10/13 07:17:01;;;;;;;147.17;20.03;;;8.30;99.90;;;;;;5108067;28;20453;-69
2022/10/13 07:19:28;;;;;;;160.63;21.17;;;8.30;99.90;;;;;;5094390;28;20462;-68
2022/10/13 07:21:54;;;;;;;132.07;21.33;;;8.30;99.90;;;;;;5093845;28;20478;-68
2022/10/13 07:24:21;;;;;;;110.50;20.67;;;8.30;99.90;;;;;;5094057;28;20451;-68
2022/10/13 07:26:49;;;;;;;173.97;21.50;;;8.40;99.90;;;;;;5097439;28;20518;-68
2022/10/13 07:29:16;;;;;;;89.00;21.63;;;8.40;99.90;;;;;;5114782;28;20454;-69
2022/10/13 07:31:44;;;;;;;184.33;22.03;;;8.40;99.90;;;;;;5113169;28;20895;-68
2022/10/13 07:34:11;;;;;;;124.63;22.07;;;8.40;99.90;;;;;;5114619;28;20862;-68
2022/10/13 07:36:40;;;;;;;200.60;25.63;;;8.50;99.90;;;;;;5113925;28;20863;-68
2022/10/13 07:39:07;;;;;;;184.47;23.30;;;8.60;99.90;;;;;;5114598;28;20454;-68
2022/10/13 07:41:34;;;;;;;205.63;23.87;;;8.60;99.90;;;;;;5096749;28;20475;-68
2022/10/13 07:44:02;;;;;;;149.00;24.53;;;8.60;99.90;;;;;;5093986;28;20853;-69
2022/10/13 07:46:29;;;;;;;169.23;23.43;;;8.70;99.90;;;;;;5093682;28;20485;-68
2022/10/13 07:48:56;;;;;;;209.17;24.50;;;8.70;99.90;;;;;;5113501;28;21019;-69
2022/10/13 07:51:23;;;;;;;158.70;23.63;;;8.80;99.90;;;;;;5113449;28;20469;-69
2022/10/13 07:53:49;;;;;;;186.57;26.30;;;8.80;99.90;;;;;;5114205;28;20862;-68
2022/10/13 07:56:17;;;;;;;157.97;23.57;;;8.80;99.90;;;;;;5112467;28;20447;-68
2022/10/13 07:58:45;;;;;;;124.43;22.47;;;8.80;99.90;;;;;;5114006;28;20464;-68
2022/10/13 08:01:15;;;;;;;132.47;24.20;;;8.80;99.90;;;;;;5113654;28;20982;-68
2022/10/13 08:03:42;;;;;;;195.03;27.70;;;8.80;99.90;;;;;;5114075;28;20453;-68
2022/10/13 08:06:09;;;;;;;122.67;24.07;;;8.80;99.90;;;;;;5113512;27;20509;-68
2022/10/13 08:08:37;;;;;;;140.93;27.33;;;8.80;99.90;;;;;;5097171;28;20504;-68
2022/10/13 08:11:05;;;;;;;159.57;25.27;;;8.80;99.90;;;;;;5093113;28;20478;-68
2022/10/13 08:13:32;;;;;;;134.07;24.27;;;8.80;99.90;;;;;;5093425;28;20842;-68
2022/10/13 08:16:00;;;;;;;137.73;24.53;;;8.80;99.90;;;;;;5093298;28;20500;-68
2022/10/13 08:18:29;;;;;;;148.17;26.10;;;8.70;99.90;;;;;;5092858;28;20978;-69
2022/10/13 08:20:55;;;;;;;117.93;27.13;;;8.70;99.90;;;;;;5093778;28;20830;-68
2022/10/13 08:23:22;;;;;;;153.33;26.70;;;8.80;99.90;;;;;;5093134;28;20457;-68
2022/10/13 08:25:49;;;;;;;138.70;25.77;;;8.80;99.90;;;;;;5093212;28;20475;-69
2022/10/13 08:28:18;;;;;;;122.03;28.20;;;8.80;99.90;;;;;;5105623;28;20812;-68
2022/10/13 08:30:45;;;;;;;124.50;26.20;;;8.90;99.90;;;;;;5112964;28;20462;-68
2022/10/13 08:33:12;;;;;;;148.97;28.50;;;8.90;99.90;;;;;;5113041;28;20453;-69
2022/10/13 08:35:41;;;;;;;114.37;28.23;;;8.90;99.90;;;;;;5113443;28;20475;-68
2022/10/13 08:38:07;;;;;;;91.60;26.67;;;9.00;99.90;;;;;;5101437;28;20464;-68
2022/10/13 08:40:35;;;;;;;122.90;27.37;;;9.00;99.90;;;;;;5092414;28;20446;-68
2022/10/13 08:43:06;;;;;;;130.00;28.57;;;9.10;99.90;;;;;;5092304;28;20870;-68
2022/10/13 08:45:32;;;;;;;112.80;30.07;;;9.10;99.90;;;;;;5092523;28;20447;-68
2022/10/13 08:48:02;;;;;;;84.47;28.67;;;9.10;99.90;;;;;;5093809;28;20454;-68
2022/10/13 08:50:31;;;;;;;149.43;29.27;;;9.20;99.90;;;;;;5092418;28;21002;-69
2022/10/13 08:53:04;;;;;;;105.70;29.70;;;9.20;99.90;;;;;;5092513;28;20457;-69
2022/10/13 08:55:35;;;;;;;104.77;31.00;;;9.30;99.90;;;;;;5092712;28;20455;-69
2022/10/13 08:58:06;;;;;;;117.87;29.07;;;9.20;99.90;;;;;;5102514;28;20457;-68
2022/10/13 09:00:33;;;;;;;90.83;29.30;;;9.40;99.90;;;;;;5112627;28;20456;-68
2022/10/13 09:03:15;;;;;;;90.63;30.33;;;9.40;99.90;;;;;;5112846;28;20475;-68
2022/10/13 09:05:51;;;;;;;125.90;30.30;;;9.50;99.90;;;;;;5112800;28;20446;-68
2022/10/13 09:08:20;;;;;;;81.07;28.63;;;9.50;99.90;;;;;;5099957;28;20451;-69
2022/10/13 09:10:48;;;;;;;94.20;27.93;;;9.50;99.90;;;;;;5092835;28;20475;-69
2022/10/13 09:13:15;;;;;;;139.87;33.07;;;9.50;99.90;;;;;;5092255;28;20489;-69
2022/10/13 09:15:45;;;;;;;103.73;30.13;;;9.50;99.90;;;;;;5092260;28;20857;-68
2022/10/13 09:18:13;;;;;;;93.37;32.50;;;9.60;99.90;;;;;;5110195;28;20858;-69
2022/10/13 09:20:41;;;;;;;96.13;31.27;;;9.60;99.90;;;;;;5112372;28;20442;-69
2022/10/13 09:23:19;;;;;;;84.97;31.70;;;9.70;99.90;;;;;;5112133;28;20932;-69
2022/10/13 09:25:48;;;;;;;84.67;31.47;;;9.70;99.90;;;;;;5112345;28;20459;-68
2022/10/13 09:28:18;;;;;;;113.90;33.40;;;9.70;99.90;;;;;;5111605;28;20830;-68
2022/10/13 09:30:46;;;;;;;105.57;34.30;;;9.80;99.90;;;;;;5111916;28;20461;-69
2022/10/13 09:33:23;;;;;;;92.33;34.30;;;9.80;99.90;;;;;;5112174;28;20526;-69
2022/10/13 09:36:09;;;;;;;112.00;35.20;;;9.80;99.90;;;;;;5112517;28;20503;-69
2022/10/13 09:38:38;;;;;;;97.73;36.07;;;9.80;99.90;;;;;;5093741;28;20478;-69
2022/10/13 09:41:11;;;;;;;96.63;35.30;;;9.90;99.90;;;;;;5103802;28;20535;-68
2022/10/13 09:43:41;;;;;;;100.33;36.80;;;10.00;99.90;;;;;;5104132;28;20952;-68
2022/10/13 09:46:17;;;;;;;84.13;33.80;;;10.10;99.90;;;;;;5105542;28;20915;-69
2022/10/13 09:48:49;;;;;;;86.97;34.43;;;10.10;99.90;;;;;;5107490;28;20442;-68
2022/10/13 09:51:32;;;;;;;89.13;35.67;;;10.20;99.90;;;;;;5106452;28;20523;-69
2022/10/13 09:54:00;;;;;;;78.17;33.67;;;10.20;99.90;;;;;;5106384;28;20461;-69
2022/10/13 09:56:33;;;;;;;80.20;33.07;;;10.30;99.90;;;;;;5106381;28;20442;-69
2022/10/13 09:59:10;;;;;;;95.43;34.00;;;10.30;99.90;;;;;;5106160;28;20443;-68
2022/10/13 10:01:41;;;;;;;93.53;36.70;;;10.30;99.90;;;;;;5106621;28;20530;-69
2022/10/13 10:04:12;;;;;;;89.27;35.83;;;10.30;99.90;;;;;;5106781;28;20447;-69
2022/10/13 10:06:40;;;;;;;88.63;35.60;;;10.30;99.90;;;;;;5107161;28;20903;-68
2022/10/13 10:09:26;;;;;;;80.53;33.37;;;10.30;99.90;;;;;;5105992;28;20497;-69
2022/10/13 10:11:54;;;;;;;97.63;36.30;;;10.40;99.90;;;;;;5107147;28;21086;-69
2022/10/13 10:14:26;;;;;;;80.83;34.27;;;10.40;99.90;;;;;;5106016;28;20495;-69
2022/10/13 10:17:01;;;;;;;73.93;33.63;;;10.40;99.90;;;;;;5107517;28;20446;-68
2022/10/13 10:19:41;;;;;;;78.73;34.37;;;10.40;99.90;;;;;;5106216;28;20491;-69
2022/10/13 10:22:15;;;;;;;81.07;34.17;;;10.40;99.90;;;;;;5106522;28;20470;-69
2022/10/13 10:24:50;;;;;;;84.70;34.77;;;10.40;99.90;;;;;;5106440;28;20450;-69
2022/10/13 10:27:20;;;;;;;84.43;33.87;;;10.50;99.90;;;;;;5106554;28;20484;-69
2022/10/13 10:29:51;;;;;;;90.97;35.77;;;10.50;99.90;;;;;;5107049;28;20439;-69
2022/10/13 10:32:28;;;;;;;80.37;35.47;;;10.60;99.90;;;;;;5105772;28;20549;-69
2022/10/13 10:34:59;;;;;;;96.10;32.00;;;10.70;99.90;;;;;;5107362;28;20442;-68
2022/10/13 10:37:43;;;;;;;89.77;35.87;;;10.80;99.90;;;;;;5106498;28;20822;-68
2022/10/13 10:40:24;;;;;;;74.67;33.27;;;11.00;99.90;;;;;;5106633;28;20449;-68
2022/10/13 10:43:03;;;;;;;78.93;35.63;;;11.20;99.90;;;;;;5107032;28;20990;-68
2022/10/13 10:45:35;;;;;;;77.57;33.87;;;11.30;99.90;;;;;;5107023;28;20816;-68
2022/10/13 10:48:07;;;;;;;82.63;34.87;;;11.40;99.90;;;;;;5106503;28;20499;-68
2022/10/13 10:50:34;;;;;;;66.70;32.50;;;11.50;99.90;;;;;;5106220;28;20454;-68
2022/10/13 10:53:06;;;;;;;73.40;34.33;;;11.50;99.90;;;;;;5106792;28;20458;-69
2022/10/13 10:55:39;;;;;;;76.77;34.37;;;11.60;99.90;;;;;;5105398;28;20450;-69
2022/10/13 10:58:16;;;;;;;78.17;33.27;;;11.80;99.90;;;;;;5106627;28;20447;-68
2022/10/13 11:00:51;;;;;;;72.17;32.47;;;11.90;99.90;;;;;;5105296;28;20441;-68
2022/10/13 11:03:28;;;;;;;78.70;32.67;;;12.10;99.90;;;;;;5107094;28;20515;-69
2022/10/13 11:06:03;;;;;;;65.47;32.17;;;12.20;99.90;;;;;;5109377;28;20462;-69
2022/10/13 11:08:40;;;;;;;62.53;30.10;;;12.30;99.90;;;;;;5109258;28;20489;-69
2022/10/13 11:11:47;;;;;;;63.70;30.63;;;12.50;99.90;;;;;;5108856;28;20468;-69
2022/10/13 11:14:30;;;;;;;70.33;30.13;;;12.60;99.90;;;;;;5104888;28;20486;-69
2022/10/13 11:17:27;;;;;;;68.03;33.13;;;12.60;99.90;;;;;;5110227;28;20445;-69
2022/10/13 11:19:54;;;;;;;71.13;29.23;;;12.70;99.90;;;;;;5108959;28;20453;-69
2022/10/13 11:22:23;;;;;;;55.73;29.87;;;12.80;99.90;;;;;;5109781;28;20470;-69
2022/10/13 11:25:05;;;;;;;61.10;30.00;;;12.90;99.90;;;;;;5109657;28;20538;-70
2022/10/13 11:27:43;;;;;;;61.13;28.80;;;12.90;99.90;;;;;;5108358;28;21072;-69
2022/10/13 11:30:53;;;;;;;59.17;29.43;;;13.00;99.90;;;;;;5107137;28;20458;-69
2022/10/13 11:33:51;;;;;;;70.70;31.57;;;13.00;99.90;;;;;;5098976;28;20454;-69
2022/10/13 11:36:51;;;;;;;61.70;30.30;;;13.00;99.90;;;;;;5109267;28;20466;-69
2022/10/13 11:40:00;;;;;;;70.63;30.40;;;13.20;99.90;;;;;;5109834;28;20499;-69
2022/10/13 11:42:58;;;;;;;68.60;31.47;;;13.30;99.90;;;;;;5109262;28;20516;-69
2022/10/13 11:45:40;;;;;;;73.63;31.27;;;13.40;99.90;;;;;;5109032;28;20458;-69
2022/10/13 11:48:36;;;;;;;58.90;29.20;;;13.70;99.90;;;;;;5109371;28;20494;-69
2022/10/13 11:51:14;;;;;;;48.70;26.90;;;13.90;99.90;;;;;;5108668;28;20479;-69
2022/10/13 11:53:49;;;;;;;53.17;26.90;;;14.00;99.90;;;;;;5109742;28;20450;-69
2022/10/13 11:56:20;;;;;;;62.47;28.97;;;14.10;99.90;;;;;;5109383;28;20462;-69
2022/10/13 11:58:47;;;;;;;54.97;28.67;;;14.10;99.90;;;;;;5109306;28;20475;-69
2022/10/13 12:01:15;;;;;;;59.37;28.07;;;14.10;99.90;;;;;;5108086;28;20466;-69
2022/10/13 12:03:44;;;;;;;60.47;27.67;;;14.20;99.90;;;;;;5109577;28;20454;-69
2022/10/13 12:06:31;;;;;;;60.83;28.17;;;14.20;99.90;;;;;;5109241;28;20443;-69
2022/10/13 12:09:00;;;;;;;50.87;27.03;;;14.20;99.90;;;;;;5108525;28;20441;-69
2022/10/13 12:11:29;;;;;;;54.97;28.63;;;14.20;99.90;;;;;;5108232;28;20469;-70
2022/10/13 12:13:56;;;;;;;55.20;29.10;;;14.20;99.90;;;;;;5109120;28;20455;-69
2022/10/13 12:16:23;;;;;;;65.57;28.37;;;14.20;99.90;;;;;;5107901;28;20451;-69
2022/10/13 12:18:51;;;;;;;48.40;26.90;;;14.30;99.90;;;;;;5108806;28;20446;-69
2022/10/13 12:21:20;;;;;;;57.63;28.13;;;14.30;99.90;;;;;;5108119;28;20462;-69
2022/10/13 12:23:48;;;;;;;58.20;29.00;;;14.20;99.90;;;;;;5108602;28;20443;-69
2022/10/13 12:26:16;;;;;;;65.30;30.47;;;14.10;99.90;;;;;;5108694;28;20446;-69
2022/10/13 12:28:50;;;;;;;58.63;29.77;;;14.10;99.90;;;;;;5108440;28;20469;-69
2022/10/13 12:31:19;;;;;;;55.50;27.60;;;14.10;99.90;;;;;;5108007;28;21007;-68
2022/10/13 12:33:53;;;;;;;59.50;29.80;;;14.20;99.90;;;;;;5108645;28;20458;-68
2022/10/13 12:36:26;;;;;;;55.93;27.33;;;14.20;99.90;;;;;;5108727;28;20454;-68
2022/10/13 12:38:56;;;;;;;63.93;29.30;;;14.30;99.90;;;;;;5108067;28;20457;-68
2022/10/13 12:41:26;;;;;;;52.10;26.83;;;14.30;99.90;;;;;;5107975;28;21009;-68
2022/10/13 12:43:54;;;;;;;52.43;25.57;;;14.40;99.90;;;;;;5108951;28;20446;-68
2022/10/13 12:46:39;;;;;;;41.07;21.73;;;14.40;99.90;;;;;;5107697;28;21014;-68
2022/10/13 12:49:08;;;;;;;40.20;23.00;;;14.50;99.90;;;;;;5107908;28;20482;-68